createdAt,value
2019-03-26T00:00:34.829Z,1.44
2019-03-26T00:01:34.803Z,1.4
2019-03-26T00:02:34.543Z,1.46
2019-03-26T00:03:34.765Z,1.51
2019-03-26T00:04:34.753Z,1.48
2019-03-26T00:05:34.729Z,1.5
2019-03-26T00:06:34.710Z,1.56
2019-03-26T00:07:34.698Z,1.47
2019-03-26T00:08:34.674Z,1.54
2019-03-26T00:09:34.662Z,1.53
2019-03-26T00:10:34.637Z,1.4
2019-03-26T00:11:34.395Z,1.54
2019-03-26T00:12:34.359Z,1.47
2019-03-26T00:13:34.587Z,1.57
2019-03-26T00:14:34.569Z,1.5
2019-03-26T00:15:34.552Z,1.5
2019-03-26T00:16:34.291Z,1.46
2019-03-26T00:17:34.516Z,1.5
2019-03-26T00:18:34.497Z,1.48
2019-03-26T00:19:34.630Z,1.47
2019-03-26T00:20:34.472Z,1.47
2019-03-26T00:21:34.443Z,1.47
2019-03-26T00:22:34.425Z,1.51
2019-03-26T00:23:34.409Z,1.57
2019-03-26T00:24:34.396Z,1.5
2019-03-26T00:25:34.381Z,1.51
2019-03-26T00:26:34.351Z,1.44
2019-03-26T00:27:34.337Z,1.5
2019-03-26T00:28:34.324Z,1.58
2019-03-26T00:29:34.301Z,1.6
2019-03-26T00:30:34.283Z,1.5
2019-03-26T00:31:34.263Z,1.54
2019-03-26T00:32:34.247Z,1.48
2019-03-26T00:33:41.328Z,1.57
2019-03-26T00:34:34.210Z,1.47
2019-03-26T00:35:34.192Z,1.58
2019-03-26T00:36:34.180Z,1.51
2019-03-26T00:37:34.160Z,1.58
2019-03-26T00:38:34.305Z,1.51
2019-03-26T00:39:34.122Z,1.54
2019-03-26T00:40:34.100Z,1.53
2019-03-26T00:41:33.838Z,1.53
2019-03-26T00:42:34.072Z,1.5
2019-03-26T00:43:34.051Z,1.56
2019-03-26T00:44:34.030Z,1.53
2019-03-26T00:45:34.017Z,1.53
2019-03-26T00:46:33.752Z,1.54
2019-03-26T00:47:33.980Z,1.47
2019-03-26T00:48:33.961Z,1.48
2019-03-26T00:49:33.700Z,1.46
2019-03-26T00:50:33.927Z,1.54
2019-03-26T00:51:33.909Z,1.5
2019-03-26T00:52:33.895Z,1.48
2019-03-26T00:53:33.875Z,1.47
2019-03-26T00:54:33.856Z,1.5
2019-03-26T00:55:33.935Z,1.4
2019-03-26T00:56:33.826Z,1.53
2019-03-26T00:57:33.556Z,1.57
2019-03-26T00:58:33.781Z,1.54
2019-03-26T00:59:33.516Z,1.56
2019-03-26T01:00:33.748Z,1.64
2019-03-26T01:01:33.731Z,1.65
2019-03-26T01:02:33.713Z,1.66
2019-03-26T01:03:33.695Z,1.65
2019-03-26T01:04:38.033Z,1.57
2019-03-26T01:05:33.657Z,1.58
2019-03-26T01:06:33.641Z,1.58
2019-03-26T01:07:33.622Z,1.58
2019-03-26T01:08:33.606Z,1.64
2019-03-26T01:09:33.586Z,1.61
2019-03-26T01:10:33.571Z,1.6
2019-03-26T01:11:33.311Z,1.58
2019-03-26T01:12:36.003Z,1.66
2019-03-26T01:13:33.529Z,1.6
2019-03-26T01:14:33.502Z,1.66
2019-03-26T01:15:33.484Z,1.64
2019-03-26T01:16:33.473Z,1.66
2019-03-26T01:17:33.448Z,1.66
2019-03-26T01:18:33.428Z,1.66
2019-03-26T01:19:33.411Z,1.6
2019-03-26T01:20:33.390Z,1.66
2019-03-26T01:21:33.379Z,1.68
2019-03-26T01:22:33.355Z,1.72
2019-03-26T01:23:33.341Z,1.76
2019-03-26T01:24:33.078Z,1.76
2019-03-26T01:25:33.554Z,1.66
2019-03-26T01:26:33.043Z,1.69
2019-03-26T01:27:33.279Z,1.74
2019-03-26T01:28:33.251Z,1.74
2019-03-26T01:29:32.990Z,1.75
2019-03-26T01:30:33.213Z,1.71
2019-03-26T01:31:33.200Z,1.78
2019-03-26T01:32:33.180Z,1.78
2019-03-26T01:33:33.162Z,1.78
2019-03-26T01:34:45.375Z,1.76
2019-03-26T01:35:33.125Z,1.76
2019-03-26T01:36:33.120Z,1.75
2019-03-26T01:37:33.098Z,1.74
2019-03-26T01:38:32.824Z,1.69
2019-03-26T01:39:33.057Z,1.74
2019-03-26T01:40:33.159Z,1.72
2019-03-26T01:41:33.043Z,1.76
2019-03-26T01:42:33.010Z,1.82
2019-03-26T01:43:33.019Z,1.72
2019-03-26T01:44:32.969Z,1.86
2019-03-26T01:45:32.954Z,1.86
2019-03-26T01:46:32.937Z,1.72
2019-03-26T01:47:32.668Z,1.87
2019-03-26T01:48:32.900Z,1.74
2019-03-26T01:49:32.910Z,1.86
2019-03-26T01:50:32.860Z,1.76
2019-03-26T01:51:32.597Z,1.86
2019-03-26T01:52:32.828Z,1.78
2019-03-26T01:53:32.811Z,1.86
2019-03-26T01:54:32.792Z,1.74
2019-03-26T01:55:32.773Z,1.71
2019-03-26T01:56:32.766Z,1.86
2019-03-26T01:57:32.736Z,1.69
2019-03-26T01:58:32.472Z,1.69
2019-03-26T01:59:32.704Z,1.76
2019-03-26T02:00:32.699Z,1.74
2019-03-26T02:01:32.668Z,1.74
2019-03-26T02:02:32.657Z,1.74
2019-03-26T02:03:32.387Z,1.83
2019-03-26T02:04:32.616Z,1.74
2019-03-26T02:05:32.599Z,1.83
2019-03-26T02:06:32.587Z,1.84
2019-03-26T02:07:32.570Z,1.84
2019-03-26T02:08:32.546Z,1.84
2019-03-26T02:09:32.284Z,1.82
2019-03-26T02:10:32.517Z,1.86
2019-03-26T02:11:32.490Z,1.82
2019-03-26T02:12:32.483Z,1.84
2019-03-26T02:13:32.461Z,1.82
2019-03-26T02:14:32.446Z,1.83
2019-03-26T02:15:32.445Z,1.83
2019-03-26T02:16:32.408Z,1.87
2019-03-26T02:17:32.142Z,1.79
2019-03-26T02:18:32.373Z,1.79
2019-03-26T02:19:32.360Z,1.76
2019-03-26T02:20:32.349Z,1.75
2019-03-26T02:21:32.323Z,1.69
2019-03-26T02:22:32.306Z,1.78
2019-03-26T02:23:32.283Z,1.72
2019-03-26T02:24:32.302Z,1.76
2019-03-26T02:25:32.000Z,1.76
2019-03-26T02:26:32.232Z,1.72
2019-03-26T02:27:32.218Z,1.87
2019-03-26T02:28:32.206Z,1.87
2019-03-26T02:29:31.929Z,1.78
2019-03-26T02:30:32.693Z,1.86
2019-03-26T02:31:31.910Z,1.93
2019-03-26T02:32:32.131Z,1.84
2019-03-26T02:33:32.129Z,1.92
2019-03-26T02:34:32.105Z,1.86
2019-03-26T02:35:32.119Z,1.83
2019-03-26T02:36:32.071Z,1.86
2019-03-26T02:37:32.047Z,1.87
2019-03-26T02:38:32.226Z,1.98
2019-03-26T02:39:32.009Z,1.84
2019-03-26T02:40:32.027Z,1.92
2019-03-26T02:41:31.735Z,2.04
2019-03-26T02:42:31.957Z,2.02
2019-03-26T02:43:31.952Z,1.97
2019-03-26T02:44:31.937Z,2.06
2019-03-26T02:45:31.916Z,1.97
2019-03-26T02:46:31.646Z,2.04
2019-03-26T02:47:31.891Z,2.04
2019-03-26T02:48:31.863Z,2.01
2019-03-26T02:49:31.831Z,2.05
2019-03-26T02:50:31.579Z,1.92
2019-03-26T02:51:31.829Z,1.94
2019-03-26T02:52:31.779Z,1.92
2019-03-26T02:53:31.809Z,2.09
2019-03-26T02:54:31.763Z,1.97
2019-03-26T02:55:31.751Z,2.04
2019-03-26T02:56:31.721Z,1.98
2019-03-26T02:57:31.710Z,2.01
2019-03-26T02:58:31.677Z,1.94
2019-03-26T02:59:31.678Z,1.89
2019-03-26T03:00:31.399Z,1.98
2019-03-26T03:01:31.652Z,1.98
2019-03-26T03:02:31.603Z,1.94
2019-03-26T03:03:31.615Z,1.94
2019-03-26T03:04:31.615Z,1.98
2019-03-26T03:05:40.405Z,1.94
2019-03-26T03:06:31.533Z,2.08
2019-03-26T03:07:31.028Z,2.02
2019-03-26T03:08:31.517Z,2.05
2019-03-26T03:09:31.485Z,2.13
2019-03-26T03:10:31.490Z,2.11
2019-03-26T03:11:31.456Z,2.15
2019-03-26T03:12:31.434Z,2.04
2019-03-26T03:13:31.425Z,2.08
2019-03-26T03:14:31.408Z,2.05
2019-03-26T03:15:31.142Z,2.12
2019-03-26T03:16:31.368Z,2.01
2019-03-26T03:17:31.142Z,2.05
2019-03-26T03:18:31.336Z,2.09
2019-03-26T03:19:31.316Z,2.08
2019-03-26T03:20:30.798Z,2.08
2019-03-26T03:21:31.286Z,2.06
2019-03-26T03:22:31.259Z,2.08
2019-03-26T03:23:31.243Z,2.12
2019-03-26T03:24:31.226Z,2.06
2019-03-26T03:25:31.218Z,2.12
2019-03-26T03:26:31.214Z,2.16
2019-03-26T03:27:31.191Z,2.22
2019-03-26T03:28:31.157Z,2.11
2019-03-26T03:29:31.136Z,2.08
2019-03-26T03:30:31.220Z,2.13
2019-03-26T03:31:31.120Z,2.15
2019-03-26T03:32:31.133Z,2.13
2019-03-26T03:33:31.313Z,2.09
2019-03-26T03:34:31.053Z,2.11
2019-03-26T03:35:31.032Z,2.11
2019-03-26T03:36:31.277Z,2.16
2019-03-26T03:37:31.009Z,2.11
2019-03-26T03:38:30.984Z,2.11
2019-03-26T03:39:30.977Z,2.13
2019-03-26T03:40:30.969Z,2.11
2019-03-26T03:41:30.956Z,2.09
2019-03-26T03:42:30.915Z,2.12
2019-03-26T03:43:30.901Z,2.12
2019-03-26T03:44:30.879Z,2.15
2019-03-26T03:45:30.870Z,2.11
2019-03-26T03:46:30.855Z,2.18
2019-03-26T03:47:30.591Z,2.13
2019-03-26T03:48:30.940Z,2.2
2019-03-26T03:49:30.566Z,2.13
2019-03-26T03:50:30.814Z,2.18
2019-03-26T03:51:30.762Z,2.18
2019-03-26T03:52:30.746Z,2.16
2019-03-26T03:53:30.738Z,2.12
2019-03-26T03:54:30.482Z,2.12
2019-03-26T03:55:30.699Z,2.12
2019-03-26T03:56:30.439Z,2.18
2019-03-26T03:57:30.412Z,2.09
2019-03-26T03:58:30.720Z,2.11
2019-03-26T03:59:30.399Z,2.05
2019-03-26T04:00:30.607Z,2.02
2019-03-26T04:01:30.338Z,2.09
2019-03-26T04:02:30.322Z,2.08
2019-03-26T04:03:30.591Z,2.05
2019-03-26T04:04:30.538Z,2.06
2019-03-26T04:05:30.532Z,2.06
2019-03-26T04:06:30.512Z,2.02
2019-03-26T04:07:30.495Z,1.98
2019-03-26T04:08:30.469Z,2.12
2019-03-26T04:09:30.207Z,2.11
2019-03-26T04:10:30.430Z,2.05
2019-03-26T04:11:30.169Z,2.06
2019-03-26T04:12:30.148Z,2.09
2019-03-26T04:13:30.134Z,2.02
2019-03-26T04:14:30.391Z,2.04
2019-03-26T04:15:34.463Z,2.02
2019-03-26T04:16:30.329Z,1.98
2019-03-26T04:17:30.304Z,2.01
2019-03-26T04:18:29.808Z,1.89
2019-03-26T04:19:30.313Z,1.93
2019-03-26T04:20:30.263Z,1.93
2019-03-26T04:21:30.252Z,1.97
2019-03-26T04:22:30.225Z,1.98
2019-03-26T04:23:30.230Z,2.01
2019-03-26T04:24:30.183Z,1.94
2019-03-26T04:25:29.957Z,1.93
2019-03-26T04:26:30.170Z,1.98
2019-03-26T04:27:30.144Z,1.93
2019-03-26T04:28:30.158Z,1.9
2019-03-26T04:29:30.132Z,1.97
2019-03-26T04:30:30.083Z,2.02
2019-03-26T04:31:30.073Z,1.97
2019-03-26T04:32:30.055Z,2.02
2019-03-26T04:33:30.039Z,1.94
2019-03-26T04:34:30.031Z,2.01
2019-03-26T04:35:29.997Z,1.94
2019-03-26T04:36:31.322Z,2.01
2019-03-26T04:37:29.721Z,1.98
2019-03-26T04:38:29.952Z,2.01
2019-03-26T04:39:29.925Z,1.94
2019-03-26T04:40:29.917Z,1.97
2019-03-26T04:41:29.895Z,1.93
2019-03-26T04:42:29.868Z,1.94
2019-03-26T04:43:29.868Z,1.97
2019-03-26T04:44:29.833Z,2.01
2019-03-26T04:45:29.815Z,1.93
2019-03-26T04:46:29.549Z,1.94
2019-03-26T04:47:29.536Z,2.08
2019-03-26T04:48:29.759Z,2.02
2019-03-26T04:49:29.744Z,1.9
2019-03-26T04:50:29.755Z,1.86
2019-03-26T04:51:29.708Z,1.84
2019-03-26T04:52:29.693Z,1.79
2019-03-26T04:53:29.687Z,1.9
2019-03-26T04:54:29.658Z,1.92
2019-03-26T04:55:29.647Z,1.84
2019-03-26T04:56:29.623Z,1.84
2019-03-26T04:57:29.600Z,1.92
2019-03-26T04:58:29.586Z,1.97
2019-03-26T04:59:29.568Z,1.83
2019-03-26T05:00:29.549Z,1.84
2019-03-26T05:01:29.533Z,1.83
2019-03-26T05:02:29.533Z,1.86
2019-03-26T05:03:29.499Z,1.86
2019-03-26T05:04:29.234Z,1.84
2019-03-26T05:05:29.483Z,1.92
2019-03-26T05:06:42.204Z,1.92
2019-03-26T05:07:29.430Z,1.86
2019-03-26T05:08:29.163Z,1.84
2019-03-26T05:09:29.401Z,1.89
2019-03-26T05:10:29.403Z,1.79
2019-03-26T05:11:29.359Z,1.94
2019-03-26T05:12:29.098Z,1.79
2019-03-26T05:13:29.322Z,1.97
2019-03-26T05:14:29.306Z,1.94
2019-03-26T05:15:29.315Z,1.82
2019-03-26T05:16:29.269Z,1.84
2019-03-26T05:17:29.005Z,2.01
2019-03-26T05:18:29.238Z,1.84
2019-03-26T05:19:29.223Z,1.94
2019-03-26T05:20:29.202Z,1.82
2019-03-26T05:21:29.183Z,1.97
2019-03-26T05:22:29.394Z,1.94
2019-03-26T05:23:29.148Z,2.01
2019-03-26T05:24:29.130Z,1.93
2019-03-26T05:25:29.113Z,2.01
2019-03-26T05:26:29.099Z,1.93
2019-03-26T05:27:29.078Z,2.01
2019-03-26T05:28:29.068Z,2.05
2019-03-26T05:29:29.053Z,2.08
2019-03-26T05:30:29.034Z,2.06
2019-03-26T05:31:28.827Z,2.08
2019-03-26T05:32:28.992Z,2.05
2019-03-26T05:33:28.977Z,2.08
2019-03-26T05:34:28.961Z,2.08
2019-03-26T05:35:28.938Z,2.08
2019-03-26T05:36:28.929Z,2.11
2019-03-26T05:37:28.909Z,2.13
2019-03-26T05:38:28.889Z,2.18
2019-03-26T05:39:28.867Z,2.11
2019-03-26T05:40:28.848Z,2.23
2019-03-26T05:41:28.840Z,2.26
2019-03-26T05:42:28.570Z,2.22
2019-03-26T05:43:28.801Z,2.3
2019-03-26T05:44:28.782Z,2.16
2019-03-26T05:45:28.765Z,2.3
2019-03-26T05:46:28.748Z,2.26
2019-03-26T05:47:28.740Z,2.27
2019-03-26T05:48:28.765Z,2.27
2019-03-26T05:49:28.718Z,2.3
2019-03-26T05:50:28.680Z,2.29
2019-03-26T05:51:28.662Z,2.3
2019-03-26T05:52:28.398Z,2.34
2019-03-26T05:53:28.392Z,2.33
2019-03-26T05:54:28.618Z,2.38
2019-03-26T05:55:28.595Z,2.4
2019-03-26T05:56:30.544Z,2.27
2019-03-26T05:57:28.560Z,2.33
2019-03-26T05:58:28.537Z,2.29
2019-03-26T05:59:28.548Z,2.3
2019-03-26T06:00:28.513Z,2.34
2019-03-26T06:01:28.487Z,2.36
2019-03-26T06:02:28.471Z,2.47
2019-03-26T06:03:28.449Z,2.34
2019-03-26T06:04:28.440Z,2.36
2019-03-26T06:05:28.422Z,2.34
2019-03-26T06:06:28.153Z,2.4
2019-03-26T06:07:31.131Z,2.42
2019-03-26T06:08:28.372Z,2.31
2019-03-26T06:09:28.356Z,2.45
2019-03-26T06:10:28.335Z,2.45
2019-03-26T06:11:28.326Z,2.36
2019-03-26T06:12:28.299Z,2.51
2019-03-26T06:13:28.044Z,2.42
2019-03-26T06:14:28.263Z,2.51
2019-03-26T06:15:28.005Z,2.47
2019-03-26T06:16:40.724Z,2.47
2019-03-26T06:17:28.214Z,2.36
2019-03-26T06:18:28.195Z,2.52
2019-03-26T06:19:28.205Z,2.49
2019-03-26T06:20:28.168Z,2.47
2019-03-26T06:21:28.145Z,2.55
2019-03-26T06:22:28.184Z,2.52
2019-03-26T06:23:28.119Z,2.45
2019-03-26T06:24:28.101Z,2.55
2019-03-26T06:25:28.210Z,2.51
2019-03-26T06:26:28.060Z,2.55
2019-03-26T06:27:28.044Z,2.6
2019-03-26T06:28:28.033Z,2.59
2019-03-26T06:29:28.011Z,2.59
2019-03-26T06:30:28.003Z,2.63
2019-03-26T06:31:27.978Z,2.62
2019-03-26T06:32:27.954Z,2.7
2019-03-26T06:33:27.940Z,2.59
2019-03-26T06:34:27.922Z,2.58
2019-03-26T06:35:27.904Z,2.59
2019-03-26T06:36:27.886Z,2.6
2019-03-26T06:37:27.936Z,2.62
2019-03-26T06:38:27.854Z,2.54
2019-03-26T06:39:27.837Z,2.55
2019-03-26T06:40:27.835Z,2.65
2019-03-26T06:41:27.802Z,2.72
2019-03-26T06:42:27.784Z,2.62
2019-03-26T06:43:27.778Z,2.6
2019-03-26T06:44:27.751Z,2.62
2019-03-26T06:45:27.732Z,2.66
2019-03-26T06:46:27.732Z,2.81
2019-03-26T06:47:27.713Z,2.67
2019-03-26T06:48:27.689Z,2.73
2019-03-26T06:49:27.662Z,2.78
2019-03-26T06:50:27.657Z,2.8
2019-03-26T06:51:27.634Z,2.77
2019-03-26T06:52:27.618Z,2.73
2019-03-26T06:53:27.351Z,2.76
2019-03-26T06:54:27.586Z,2.8
2019-03-26T06:55:27.566Z,2.73
2019-03-26T06:56:27.571Z,2.78
2019-03-26T06:57:40.186Z,2.76
2019-03-26T06:58:27.512Z,2.76
2019-03-26T06:59:27.254Z,2.73
2019-03-26T07:00:27.503Z,2.7
2019-03-26T07:01:27.464Z,2.77
2019-03-26T07:02:27.201Z,2.8
2019-03-26T07:03:27.428Z,2.8
2019-03-26T07:04:27.170Z,2.81
2019-03-26T07:05:27.393Z,2.78
2019-03-26T07:06:27.381Z,2.73
2019-03-26T07:07:36.221Z,2.77
2019-03-26T07:08:27.344Z,2.8
2019-03-26T07:09:27.325Z,2.77
2019-03-26T07:10:27.312Z,2.76
2019-03-26T07:11:27.296Z,2.8
2019-03-26T07:12:27.279Z,2.87
2019-03-26T07:13:27.269Z,2.85
2019-03-26T07:14:27.246Z,3.03
2019-03-26T07:15:27.234Z,3.08
2019-03-26T07:16:27.207Z,3.11
2019-03-26T07:17:27.270Z,3.13
2019-03-26T07:18:27.173Z,3.17
2019-03-26T07:19:27.163Z,3.14
2019-03-26T07:20:27.139Z,3.13
2019-03-26T07:21:27.125Z,3.21
2019-03-26T07:22:27.107Z,3.21
2019-03-26T07:23:27.130Z,3.21
2019-03-26T07:24:27.073Z,3.24
2019-03-26T07:25:27.059Z,3.23
2019-03-26T07:26:27.044Z,3.21
2019-03-26T07:27:26.779Z,3.21
2019-03-26T07:28:26.763Z,3.17
2019-03-26T07:29:26.750Z,3.23
2019-03-26T07:30:26.998Z,3.23
2019-03-26T07:31:26.977Z,3.27
2019-03-26T07:32:26.950Z,3.17
2019-03-26T07:33:26.920Z,3.35
2019-03-26T07:34:26.906Z,3.23
2019-03-26T07:35:26.894Z,3.19
2019-03-26T07:36:26.874Z,3.27
2019-03-26T07:37:26.856Z,3.21
2019-03-26T07:38:26.844Z,3.2
2019-03-26T07:39:26.877Z,3.39
2019-03-26T07:40:26.806Z,3.48
2019-03-26T07:41:26.791Z,3.45
2019-03-26T07:42:26.781Z,3.39
2019-03-26T07:43:26.830Z,3.42
2019-03-26T07:44:26.746Z,3.42
2019-03-26T07:45:26.729Z,3.43
2019-03-26T07:46:26.708Z,3.43
2019-03-26T07:47:26.693Z,3.39
2019-03-26T07:48:26.680Z,3.46
2019-03-26T07:49:26.427Z,3.46
2019-03-26T07:50:26.659Z,3.6
2019-03-26T07:51:26.630Z,3.58
2019-03-26T07:52:26.610Z,3.71
2019-03-26T07:53:26.598Z,3.63
2019-03-26T07:54:26.583Z,3.69
2019-03-26T07:55:26.564Z,3.74
2019-03-26T07:56:26.544Z,3.71
2019-03-26T07:57:26.528Z,3.66
2019-03-26T07:58:26.524Z,3.63
2019-03-26T07:59:26.595Z,3.66
2019-03-26T08:00:26.481Z,3.74
2019-03-26T08:01:26.477Z,3.78
2019-03-26T08:02:26.206Z,3.79
2019-03-26T08:03:26.435Z,3.79
2019-03-26T08:04:26.415Z,3.84
2019-03-26T08:05:34.374Z,3.89
2019-03-26T08:06:26.380Z,3.93
2019-03-26T08:07:26.368Z,3.94
2019-03-26T08:08:26.350Z,3.96
2019-03-26T08:09:26.768Z,4.03
2019-03-26T08:10:26.399Z,4.08
2019-03-26T08:11:26.061Z,4.24
2019-03-26T08:12:26.293Z,4.17
2019-03-26T08:13:26.315Z,4.39
2019-03-26T08:14:26.348Z,4.33
2019-03-26T08:15:26.301Z,4.46
2019-03-26T08:16:26.229Z,4.48
2019-03-26T08:17:26.246Z,4.44
2019-03-26T08:18:26.190Z,4.38
2019-03-26T08:19:25.938Z,4.42
2019-03-26T08:20:26.173Z,4.44
2019-03-26T08:21:26.149Z,4.5
2019-03-26T08:22:26.131Z,4.42
2019-03-26T08:23:26.123Z,4.33
2019-03-26T08:24:26.099Z,4.26
2019-03-26T08:25:26.079Z,4.3
2019-03-26T08:26:26.062Z,4.29
2019-03-26T08:27:26.052Z,4.26
2019-03-26T08:28:26.039Z,4.33
2019-03-26T08:29:26.045Z,4.28
2019-03-26T08:30:26.003Z,4.32
2019-03-26T08:31:25.746Z,4.36
2019-03-26T08:32:25.972Z,4.42
2019-03-26T08:33:28.290Z,4.4
2019-03-26T08:34:25.943Z,4.44
2019-03-26T08:35:25.925Z,4.46
2019-03-26T08:36:25.911Z,4.38
2019-03-26T08:37:25.890Z,4.4
2019-03-26T08:38:25.900Z,4.46
2019-03-26T08:39:25.864Z,4.46
2019-03-26T08:40:28.230Z,4.48
2019-03-26T08:41:25.833Z,4.42
2019-03-26T08:42:25.817Z,4.46
2019-03-26T08:43:25.804Z,4.46
2019-03-26T08:44:25.792Z,4.5
2019-03-26T08:45:25.773Z,4.5
2019-03-26T08:46:25.753Z,4.57
2019-03-26T08:47:25.498Z,4.61
2019-03-26T08:48:25.728Z,4.68
2019-03-26T08:49:30.533Z,4.69
2019-03-26T08:50:25.462Z,4.65
2019-03-26T08:51:25.692Z,4.76
2019-03-26T08:52:25.664Z,4.87
2019-03-26T08:53:25.399Z,4.78
2019-03-26T08:54:25.630Z,4.84
2019-03-26T08:55:25.382Z,4.76
2019-03-26T08:56:25.604Z,4.76
2019-03-26T08:57:25.366Z,4.72
2019-03-26T08:58:25.565Z,4.66
2019-03-26T08:59:25.558Z,4.68
2019-03-26T09:00:25.603Z,4.64
2019-03-26T09:01:25.524Z,4.53
2019-03-26T09:02:25.551Z,4.48
2019-03-26T09:03:25.499Z,4.53
2019-03-26T09:04:26.901Z,4.54
2019-03-26T09:05:25.463Z,4.54
2019-03-26T09:06:25.443Z,4.51
2019-03-26T09:07:25.476Z,4.51
2019-03-26T09:08:30.501Z,4.61
2019-03-26T09:09:25.401Z,4.58
2019-03-26T09:10:25.383Z,4.5
2019-03-26T09:11:25.368Z,4.47
2019-03-26T09:12:25.349Z,4.51
2019-03-26T09:13:25.337Z,4.48
2019-03-26T09:14:25.325Z,4.47
2019-03-26T09:15:25.303Z,4.35
2019-03-26T09:16:25.295Z,4.28
2019-03-26T09:17:25.036Z,4.3
2019-03-26T09:18:25.265Z,4.3
2019-03-26T09:19:25.247Z,4.32
2019-03-26T09:20:25.234Z,4.44
2019-03-26T09:21:25.217Z,4.42
2019-03-26T09:22:24.956Z,4.54
2019-03-26T09:23:25.189Z,4.51
2019-03-26T09:24:25.166Z,4.51
2019-03-26T09:25:25.154Z,4.58
2019-03-26T09:26:25.145Z,4.56
2019-03-26T09:27:24.627Z,4.47
2019-03-26T09:28:25.117Z,4.5
2019-03-26T09:29:24.850Z,4.5
2019-03-26T09:30:25.081Z,4.54
2019-03-26T09:31:25.058Z,4.42
2019-03-26T09:32:25.044Z,4.33
2019-03-26T09:33:25.030Z,4.39
2019-03-26T09:34:25.019Z,4.36
2019-03-26T09:35:25.003Z,4.33
2019-03-26T09:36:24.988Z,4.39
2019-03-26T09:37:24.724Z,4.33
2019-03-26T09:38:37.916Z,4.32
2019-03-26T09:39:24.702Z,4.38
2019-03-26T09:40:24.933Z,4.29
2019-03-26T09:41:24.663Z,4.3
2019-03-26T09:42:24.891Z,4.28
2019-03-26T09:43:24.873Z,4.2
2019-03-26T09:44:24.858Z,4.24
2019-03-26T09:45:24.840Z,4.35
2019-03-26T09:46:24.829Z,4.35
2019-03-26T09:47:24.809Z,4.36
2019-03-26T09:48:24.796Z,4.51
2019-03-26T09:49:24.776Z,4.44
2019-03-26T09:50:24.775Z,4.64
2019-03-26T09:51:24.756Z,4.68
2019-03-26T09:52:24.739Z,4.71
2019-03-26T09:53:24.723Z,4.84
2019-03-26T09:54:24.457Z,4.9
2019-03-26T09:55:24.684Z,4.84
2019-03-26T09:56:35.335Z,4.84
2019-03-26T09:57:24.656Z,4.79
2019-03-26T09:58:24.642Z,4.88
2019-03-26T09:59:24.622Z,4.85
2019-03-26T10:00:24.617Z,4.72
2019-03-26T10:01:24.593Z,4.69
2019-03-26T10:02:24.330Z,4.69
2019-03-26T10:03:24.563Z,4.71
2019-03-26T10:04:24.542Z,4.64
2019-03-26T10:05:24.287Z,4.71
2019-03-26T10:06:28.651Z,4.61
2019-03-26T10:07:26.661Z,4.61
2019-03-26T10:08:24.493Z,4.68
2019-03-26T10:09:24.465Z,4.71
2019-03-26T10:10:24.451Z,4.64
2019-03-26T10:11:24.438Z,4.69
2019-03-26T10:12:24.420Z,4.75
2019-03-26T10:13:24.408Z,4.83
2019-03-26T10:14:24.393Z,4.72
2019-03-26T10:15:24.378Z,4.69
2019-03-26T10:16:24.373Z,4.72
2019-03-26T10:17:24.346Z,4.69
2019-03-26T10:18:24.330Z,4.69
2019-03-26T10:19:24.318Z,4.66
2019-03-26T10:20:24.305Z,4.78
2019-03-26T10:21:24.295Z,4.74
2019-03-26T10:22:24.919Z,4.68
2019-03-26T10:23:24.257Z,4.75
2019-03-26T10:24:23.826Z,4.75
2019-03-26T10:25:24.223Z,4.87
2019-03-26T10:26:24.207Z,4.91
2019-03-26T10:27:24.191Z,5.02
2019-03-26T10:28:23.939Z,5.13
2019-03-26T10:29:34.876Z,5.18
2019-03-26T10:30:27.229Z,5.2
2019-03-26T10:31:24.132Z,5.2
2019-03-26T10:32:24.119Z,5.24
2019-03-26T10:33:24.103Z,5.3
2019-03-26T10:34:23.840Z,5.2
2019-03-26T10:35:24.074Z,5.33
2019-03-26T10:36:24.058Z,5.28
2019-03-26T10:37:24.042Z,5.24
2019-03-26T10:38:24.034Z,5.23
2019-03-26T10:39:24.015Z,5.21
2019-03-26T10:40:24.004Z,5.16
2019-03-26T10:41:23.735Z,5.16
2019-03-26T10:42:23.970Z,5.18
2019-03-26T10:43:23.949Z,5.15
2019-03-26T10:44:23.934Z,5.15
2019-03-26T10:45:23.923Z,5.21
2019-03-26T10:46:23.904Z,5.2
2019-03-26T10:47:23.943Z,5.15
2019-03-26T10:48:23.879Z,5.16
2019-03-26T10:49:23.866Z,5.23
2019-03-26T10:50:23.847Z,5.18
2019-03-26T10:51:23.840Z,5.18
2019-03-26T10:52:23.816Z,5.13
2019-03-26T10:53:23.804Z,5.15
2019-03-26T10:54:23.544Z,5.15
2019-03-26T10:55:23.769Z,5.12
2019-03-26T10:56:23.764Z,5.12
2019-03-26T10:57:26.707Z,5.13
2019-03-26T10:58:23.743Z,5.12
2019-03-26T10:59:23.713Z,5.15
2019-03-26T11:00:23.707Z,5.26
2019-03-26T11:01:23.191Z,5.26
2019-03-26T11:02:23.420Z,5.39
2019-03-26T11:03:23.673Z,5.42
2019-03-26T11:04:23.642Z,5.63
2019-03-26T11:05:23.624Z,5.67
2019-03-26T11:06:23.660Z,5.72
2019-03-26T11:07:23.359Z,5.73
2019-03-26T11:08:23.589Z,5.73
2019-03-26T11:09:31.442Z,5.67
2019-03-26T11:10:23.562Z,5.64
2019-03-26T11:11:23.537Z,5.54
2019-03-26T11:12:23.529Z,5.51
2019-03-26T11:13:23.512Z,5.51
2019-03-26T11:14:23.491Z,5.39
2019-03-26T11:15:22.985Z,5.41
2019-03-26T11:16:23.457Z,5.33
2019-03-26T11:17:23.451Z,5.3
2019-03-26T11:18:23.439Z,5.28
2019-03-26T11:19:23.439Z,5.37
2019-03-26T11:20:23.411Z,5.39
2019-03-26T11:21:23.392Z,5.41
2019-03-26T11:22:23.129Z,5.34
2019-03-26T11:23:23.122Z,5.23
2019-03-26T11:24:23.101Z,5.33
2019-03-26T11:25:23.334Z,5.2
2019-03-26T11:26:23.318Z,5.23
2019-03-26T11:27:23.307Z,5.18
2019-03-26T11:28:23.307Z,5.08
2019-03-26T11:29:23.025Z,5.05
2019-03-26T11:30:22.764Z,4.98
2019-03-26T11:31:23.238Z,4.94
2019-03-26T11:32:23.224Z,4.84
2019-03-26T11:33:22.969Z,4.79
2019-03-26T11:34:23.203Z,4.85
2019-03-26T11:35:23.184Z,4.84
2019-03-26T11:36:23.166Z,4.87
2019-03-26T11:37:23.154Z,4.94
2019-03-26T11:38:23.529Z,4.94
2019-03-26T11:39:36.746Z,5.06
2019-03-26T11:40:23.107Z,5.13
2019-03-26T11:41:23.091Z,5.23
2019-03-26T11:42:23.078Z,5.36
2019-03-26T11:43:23.062Z,5.44
2019-03-26T11:44:23.052Z,5.69
2019-03-26T11:45:23.032Z,5.64
2019-03-26T11:46:23.019Z,5.73
2019-03-26T11:47:23.004Z,5.81
2019-03-26T11:48:23.019Z,5.72
2019-03-26T11:49:22.979Z,5.73
2019-03-26T11:50:22.720Z,5.64
2019-03-26T11:51:22.945Z,5.7
2019-03-26T11:52:22.685Z,5.52
2019-03-26T11:53:22.673Z,5.48
2019-03-26T11:54:22.994Z,5.42
2019-03-26T11:55:24.435Z,5.42
2019-03-26T11:56:22.875Z,5.37
2019-03-26T11:57:22.866Z,5.33
2019-03-26T11:58:35.223Z,5.23
2019-03-26T11:59:22.830Z,5.21
2019-03-26T12:00:22.815Z,5.15
2019-03-26T12:01:22.818Z,5.05
2019-03-26T12:02:23.098Z,5.08
2019-03-26T12:03:22.842Z,5.09
2019-03-26T12:04:22.754Z,5.05
2019-03-26T12:05:22.500Z,5.08
2019-03-26T12:06:22.724Z,5.08
2019-03-26T12:07:22.727Z,5.08
2019-03-26T12:08:22.697Z,5.03
2019-03-26T12:09:22.681Z,5.03
2019-03-26T12:10:22.663Z,4.97
2019-03-26T12:11:22.417Z,5.02
2019-03-26T12:12:22.641Z,5.02
2019-03-26T12:13:22.379Z,5.1
2019-03-26T12:14:22.610Z,5.16
2019-03-26T12:15:22.588Z,5.12
2019-03-26T12:16:22.575Z,5.2
2019-03-26T12:17:22.580Z,5.26
2019-03-26T12:18:22.547Z,5.33
2019-03-26T12:19:22.530Z,5.34
2019-03-26T12:20:22.518Z,5.33
2019-03-26T12:21:22.504Z,5.36
2019-03-26T12:22:22.487Z,5.37
2019-03-26T12:23:22.482Z,5.26
2019-03-26T12:24:22.461Z,5.26
2019-03-26T12:25:22.526Z,5.23
2019-03-26T12:26:22.430Z,5.15
2019-03-26T12:27:22.418Z,5.16
2019-03-26T12:28:22.420Z,5.33
2019-03-26T12:29:22.391Z,5.46
2019-03-26T12:30:22.372Z,5.51
2019-03-26T12:31:22.354Z,5.64
2019-03-26T12:32:22.337Z,5.78
2019-03-26T12:33:22.325Z,5.91
2019-03-26T12:34:22.063Z,5.88
2019-03-26T12:35:22.302Z,6.02
2019-03-26T12:36:22.279Z,6.06
2019-03-26T12:37:22.268Z,6.29
2019-03-26T12:38:22.259Z,6.21
2019-03-26T12:39:21.990Z,6.25
2019-03-26T12:40:22.224Z,6.17
2019-03-26T12:41:22.208Z,6.25
2019-03-26T12:42:22.193Z,6.18
2019-03-26T12:43:22.180Z,6.28
2019-03-26T12:44:22.176Z,6.28
2019-03-26T12:45:22.154Z,6.34
2019-03-26T12:46:22.145Z,6.24
2019-03-26T12:47:22.136Z,6.37
2019-03-26T12:48:22.112Z,6.33
2019-03-26T12:49:22.099Z,6.2
2019-03-26T12:50:22.083Z,6.18
2019-03-26T12:51:22.065Z,6.28
2019-03-26T12:52:22.049Z,6.26
2019-03-26T12:53:21.796Z,6.31
2019-03-26T12:54:22.027Z,6.37
2019-03-26T12:55:22.019Z,6.4
2019-03-26T12:56:22.002Z,6.49
2019-03-26T12:57:21.988Z,6.52
2019-03-26T12:58:38.894Z,6.68
2019-03-26T12:59:21.956Z,6.85
2019-03-26T13:00:21.944Z,7.03
2019-03-26T13:01:21.940Z,7.09
2019-03-26T13:02:21.917Z,7.27
2019-03-26T13:03:21.901Z,7.52
2019-03-26T13:04:21.893Z,7.36
2019-03-26T13:05:23.178Z,7.34
2019-03-26T13:06:21.859Z,7.19
2019-03-26T13:07:21.845Z,7.15
2019-03-26T13:08:21.830Z,7
2019-03-26T13:09:21.817Z,6.86
2019-03-26T13:10:21.808Z,6.91
2019-03-26T13:11:21.872Z,6.97
2019-03-26T13:12:21.779Z,6.91
2019-03-26T13:13:21.765Z,6.86
2019-03-26T13:14:21.753Z,6.91
2019-03-26T13:15:21.495Z,6.85
2019-03-26T13:16:21.725Z,6.72
2019-03-26T13:17:21.726Z,6.6
2019-03-26T13:18:21.704Z,6.57
2019-03-26T13:19:21.682Z,6.51
2019-03-26T13:20:21.676Z,6.46